createdAt,value
2016-09-09T00:00:33.048Z,1004.2
2016-09-09T00:01:34.326Z,1004.2
2016-09-09T00:02:33.412Z,1004.19
2016-09-09T00:03:33.638Z,1004.22
2016-09-09T00:04:32.602Z,1004.2
2016-09-09T00:05:33.843Z,1004.18
2016-09-09T00:06:34.267Z,1004.24
2016-09-09T00:07:33.528Z,1004.27
2016-09-09T00:08:33.402Z,1004.3
2016-09-09T00:09:33.154Z,1004.32
2016-09-09T00:10:33.242Z,1004.36
2016-09-09T00:11:33.734Z,1004.42
2016-09-09T00:12:33.611Z,1004.36
2016-09-09T00:13:34.441Z,1004.27
2016-09-09T00:14:33.353Z,1004.3
2016-09-09T00:15:33.364Z,1004.32
2016-09-09T00:16:34.222Z,1004.33
2016-09-09T00:17:34.387Z,1004.38
2016-09-09T00:18:33.745Z,1004.41
2016-09-09T00:19:33.645Z,1004.42
2016-09-09T00:20:33.677Z,1004.42
2016-09-09T00:21:34.217Z,1004.41
2016-09-09T00:22:33.523Z,1004.43
2016-09-09T00:23:33.936Z,1004.38
2016-09-09T00:24:33.712Z,1004.34
2016-09-09T00:25:33.643Z,1004.32
2016-09-09T00:26:33.682Z,1004.32
2016-09-09T00:27:33.672Z,1004.34
2016-09-09T00:28:33.759Z,1004.39
2016-09-09T00:29:33.643Z,1004.39
2016-09-09T00:30:34.206Z,1004.34
2016-09-09T00:31:33.373Z,1004.37
2016-09-09T00:32:34.118Z,1004.4
2016-09-09T00:33:33.766Z,1004.38
2016-09-09T00:34:33.784Z,1004.38
2016-09-09T00:35:33.532Z,1004.38
2016-09-09T00:36:34.053Z,1004.4
2016-09-09T00:37:33.550Z,1004.39
2016-09-09T00:38:34.457Z,1004.43
2016-09-09T00:39:34.096Z,1004.42
2016-09-09T00:40:34.323Z,1004.43
2016-09-09T00:41:34.478Z,1004.42
2016-09-09T00:42:34.428Z,1004.46
2016-09-09T00:43:34.267Z,1004.46
2016-09-09T00:44:33.987Z,1004.49
2016-09-09T00:45:33.855Z,1004.49
2016-09-09T00:46:34.281Z,1004.57
2016-09-09T00:47:33.618Z,1004.61
2016-09-09T00:48:34.325Z,1004.67
2016-09-09T00:49:34.043Z,1004.66
2016-09-09T00:50:34.245Z,1004.69
2016-09-09T00:51:34.401Z,1004.66
2016-09-09T00:52:34.266Z,1004.59
2016-09-09T00:53:33.961Z,1004.66
2016-09-09T00:54:34.233Z,1004.69
2016-09-09T00:55:33.975Z,1004.7
2016-09-09T00:56:34.352Z,1004.72
2016-09-09T00:57:34.334Z,1004.75
2016-09-09T00:58:33.953Z,1004.73
2016-09-09T00:59:34.308Z,1004.72
2016-09-09T01:00:34.845Z,1004.7
2016-09-09T01:01:34.710Z,1004.74
2016-09-09T01:02:34.318Z,1004.72
2016-09-09T01:03:34.231Z,1004.74
2016-09-09T01:04:34.331Z,1004.77
2016-09-09T01:05:34.495Z,1004.79
2016-09-09T01:06:34.868Z,1004.81
2016-09-09T01:07:35.029Z,1004.76
2016-09-09T01:08:34.710Z,1004.8
2016-09-09T01:09:35.420Z,1004.8
2016-09-09T01:10:34.486Z,1004.8
2016-09-09T01:11:34.335Z,1004.8
2016-09-09T01:12:35.466Z,1004.77
2016-09-09T01:13:34.737Z,1004.77
2016-09-09T01:14:34.808Z,1004.77
2016-09-09T01:15:34.686Z,1004.77
2016-09-09T01:16:34.693Z,1004.76
2016-09-09T01:17:34.703Z,1004.78
2016-09-09T01:18:34.870Z,1004.78
2016-09-09T01:19:34.525Z,1004.82
2016-09-09T01:20:34.801Z,1004.83
2016-09-09T01:21:34.888Z,1004.88
2016-09-09T01:22:34.518Z,1004.89
2016-09-09T01:23:34.502Z,1004.9
2016-09-09T01:24:34.666Z,1004.92
2016-09-09T01:25:34.854Z,1004.93
2016-09-09T01:26:34.772Z,1004.94
2016-09-09T01:27:34.979Z,1004.99
2016-09-09T01:28:35.335Z,1004.99
2016-09-09T01:29:34.885Z,1004.96
2016-09-09T01:30:35.026Z,1004.95
2016-09-09T01:31:35.234Z,1004.97
2016-09-09T01:32:34.883Z,1004.99
2016-09-09T01:33:35.069Z,1004.97
2016-09-09T01:34:35.182Z,1004.98
2016-09-09T01:35:35.047Z,1004.99
2016-09-09T01:36:34.915Z,1005
2016-09-09T01:37:35.129Z,1005.03
2016-09-09T01:38:35.398Z,1005
2016-09-09T01:39:36.268Z,1005.05
2016-09-09T01:40:35.223Z,1005.07
2016-09-09T01:41:35.532Z,1005.1
2016-09-09T01:42:35.225Z,1005.1
2016-09-09T01:43:35.468Z,1005.14
2016-09-09T01:44:35.183Z,1005.15
2016-09-09T01:45:36.579Z,1005.19
2016-09-09T01:46:35.535Z,1005.17
2016-09-09T01:47:35.548Z,1005.17
2016-09-09T01:48:35.256Z,1005.18
2016-09-09T01:49:35.291Z,1005.19
2016-09-09T01:50:35.659Z,1005.16
2016-09-09T01:51:35.838Z,1005.17
2016-09-09T01:52:35.730Z,1005.21
2016-09-09T01:53:36.376Z,1005.21
2016-09-09T01:54:35.205Z,1005.22
2016-09-09T01:55:35.802Z,1005.21
2016-09-09T01:56:35.530Z,1005.24
2016-09-09T01:57:36.132Z,1005.28
2016-09-09T01:58:35.726Z,1005.32
2016-09-09T01:59:36.227Z,1005.33
2016-09-09T02:00:35.356Z,1005.28
2016-09-09T02:01:35.488Z,1005.29
2016-09-09T02:02:35.482Z,1005.31
2016-09-09T02:03:36.003Z,1005.35
2016-09-09T02:04:35.660Z,1005.35
2016-09-09T02:05:36.008Z,1005.35
2016-09-09T02:06:35.604Z,1005.34
2016-09-09T02:07:36.308Z,1005.38
2016-09-09T02:08:36.518Z,1005.37
2016-09-09T02:09:35.734Z,1005.38
2016-09-09T02:10:35.759Z,1005.43
2016-09-09T02:11:35.638Z,1005.43
2016-09-09T02:12:35.930Z,1005.45
2016-09-09T02:13:36.177Z,1005.46
2016-09-09T02:14:36.363Z,1005.47
2016-09-09T02:15:35.921Z,1005.48
2016-09-09T02:16:36.207Z,1005.52
2016-09-09T02:17:36.627Z,1005.53
2016-09-09T02:18:36.168Z,1005.53
2016-09-09T02:19:35.984Z,1005.52
2016-09-09T02:20:35.744Z,1005.52
2016-09-09T02:21:36.348Z,1005.49
2016-09-09T02:22:36.299Z,1005.54
2016-09-09T02:23:36.639Z,1005.53
2016-09-09T02:24:37.647Z,1005.52
2016-09-09T02:25:36.309Z,1005.55
2016-09-09T02:26:36.161Z,1005.57
2016-09-09T02:27:37.037Z,1005.57
2016-09-09T02:28:36.284Z,1005.58
2016-09-09T02:29:36.178Z,1005.56
2016-09-09T02:30:36.431Z,1005.52
2016-09-09T02:31:36.653Z,1005.54
2016-09-09T02:32:36.759Z,1005.51
2016-09-09T02:33:36.321Z,1005.56
2016-09-09T02:34:36.267Z,1005.56
2016-09-09T02:35:36.935Z,1005.56
2016-09-09T02:36:36.585Z,1005.59
2016-09-09T02:37:36.190Z,1005.59
2016-09-09T02:38:36.545Z,1005.59
2016-09-09T02:39:36.859Z,1005.61
2016-09-09T02:40:36.499Z,1005.6
2016-09-09T02:41:36.652Z,1005.61
2016-09-09T02:42:36.420Z,1005.63
2016-09-09T02:43:36.936Z,1005.6
2016-09-09T02:44:36.799Z,1005.63
2016-09-09T02:45:36.301Z,1005.63
2016-09-09T02:46:36.386Z,1005.62
2016-09-09T02:47:36.764Z,1005.65
2016-09-09T02:48:37.171Z,1005.66
2016-09-09T02:49:37.254Z,1005.64
2016-09-09T02:50:37.042Z,1005.66
2016-09-09T02:51:36.561Z,1005.71
2016-09-09T02:52:37.132Z,1005.67
2016-09-09T02:53:36.948Z,1005.67
2016-09-09T02:54:37.236Z,1005.68
2016-09-09T02:55:36.762Z,1005.69
2016-09-09T02:56:37.479Z,1005.71
2016-09-09T02:57:37.030Z,1005.68
2016-09-09T02:58:37.195Z,1005.7
2016-09-09T02:59:37.429Z,1005.67
2016-09-09T03:00:37.067Z,1005.71
2016-09-09T03:01:36.924Z,1005.72
2016-09-09T03:02:36.936Z,1005.72
2016-09-09T03:03:38.235Z,1005.74
2016-09-09T03:04:37.411Z,1005.74
2016-09-09T03:05:37.208Z,1005.75
2016-09-09T03:06:37.072Z,1005.67
2016-09-09T03:07:37.216Z,1005.64
2016-09-09T03:08:37.282Z,1005.67
2016-09-09T03:09:37.268Z,1005.71
2016-09-09T03:10:37.026Z,1005.7
2016-09-09T03:11:37.811Z,1005.71
2016-09-09T03:12:37.633Z,1005.7
2016-09-09T03:13:37.299Z,1005.71
2016-09-09T03:14:37.280Z,1005.72
2016-09-09T03:15:37.162Z,1005.7
2016-09-09T03:16:37.126Z,1005.66
2016-09-09T03:17:37.944Z,1005.65
2016-09-09T03:18:37.801Z,1005.65
2016-09-09T03:19:37.468Z,1005.67
2016-09-09T03:20:37.600Z,1005.67
2016-09-09T03:21:37.945Z,1005.7
2016-09-09T03:22:37.417Z,1005.71
2016-09-09T03:23:37.908Z,1005.74
2016-09-09T03:24:37.634Z,1005.76
2016-09-09T03:25:37.758Z,1005.68
2016-09-09T03:26:38.131Z,1005.75
2016-09-09T03:27:37.475Z,1005.76
2016-09-09T03:28:37.613Z,1005.81
2016-09-09T03:29:37.654Z,1005.81
2016-09-09T03:30:37.395Z,1005.8
2016-09-09T03:31:37.647Z,1005.78
2016-09-09T03:32:37.809Z,1005.83
2016-09-09T03:33:37.593Z,1005.81
2016-09-09T03:34:37.823Z,1005.88
2016-09-09T03:35:37.547Z,1005.89
2016-09-09T03:36:37.695Z,1005.85
2016-09-09T03:37:38.084Z,1005.84
2016-09-09T03:38:38.586Z,1005.88
2016-09-09T03:39:37.860Z,1005.87
2016-09-09T03:40:38.309Z,1005.86
2016-09-09T03:41:38.618Z,1005.89
2016-09-09T03:42:37.607Z,1005.91
2016-09-09T03:43:38.188Z,1005.93
2016-09-09T03:44:38.818Z,1005.89
2016-09-09T03:45:37.846Z,1005.94
2016-09-09T03:46:38.140Z,1005.9
2016-09-09T03:47:38.692Z,1005.92
2016-09-09T03:48:37.837Z,1005.93
2016-09-09T03:49:39.387Z,1005.89
2016-09-09T03:50:38.279Z,1005.92
2016-09-09T03:51:38.489Z,1005.91
2016-09-09T03:52:38.171Z,1005.92
2016-09-09T03:53:38.315Z,1005.94
2016-09-09T03:54:38.565Z,1005.95
2016-09-09T03:55:38.481Z,1005.93
2016-09-09T03:56:38.141Z,1005.94
2016-09-09T03:57:38.627Z,1005.91
2016-09-09T03:58:39.121Z,1005.92
2016-09-09T03:59:38.222Z,1005.9
2016-09-09T04:00:38.118Z,1005.89
2016-09-09T04:01:38.578Z,1005.91
2016-09-09T04:02:38.167Z,1005.92
2016-09-09T04:03:38.505Z,1005.99
2016-09-09T04:04:38.879Z,1005.97
2016-09-09T04:05:38.735Z,1006.01
2016-09-09T04:06:38.247Z,1006.02
2016-09-09T04:07:38.667Z,1006.01
2016-09-09T04:08:39.547Z,1006.02
2016-09-09T04:09:38.272Z,1006.02
2016-09-09T04:10:38.656Z,1006.03
2016-09-09T04:11:38.574Z,1006.02
2016-09-09T04:12:39.228Z,1006.06
2016-09-09T04:13:38.791Z,1006.04
2016-09-09T04:14:38.986Z,1006.09
2016-09-09T04:15:38.440Z,1006.09
2016-09-09T04:16:39.178Z,1006.13
2016-09-09T04:17:39.224Z,1006.12
2016-09-09T04:18:39.084Z,1006.14
2016-09-09T04:19:38.417Z,1006.14
2016-09-09T04:20:39.002Z,1006.11
2016-09-09T04:21:39.032Z,1006.15
2016-09-09T04:22:38.592Z,1006.14
2016-09-09T04:23:39.528Z,1006.15
2016-09-09T04:24:39.035Z,1006.15
2016-09-09T04:25:39.655Z,1006.22
2016-09-09T04:26:39.855Z,1006.2
2016-09-09T04:27:38.771Z,1006.22
2016-09-09T04:28:38.839Z,1006.22
2016-09-09T04:29:38.737Z,1006.18
2016-09-09T04:30:39.288Z,1006.19
2016-09-09T04:31:38.856Z,1006.21
2016-09-09T04:32:39.046Z,1006.2
2016-09-09T04:33:38.949Z,1006.23
2016-09-09T04:34:39.212Z,1006.24
2016-09-09T04:35:38.634Z,1006.21
2016-09-09T04:36:38.778Z,1006.2
2016-09-09T04:37:40.110Z,1006.24
2016-09-09T04:38:39.353Z,1006.25
2016-09-09T04:39:39.552Z,1006.28
2016-09-09T04:40:39.293Z,1006.24
2016-09-09T04:41:39.090Z,1006.25
2016-09-09T04:42:38.910Z,1006.27
2016-09-09T04:43:39.071Z,1006.28
2016-09-09T04:44:39.222Z,1006.24
2016-09-09T04:45:39.104Z,1006.3
2016-09-09T04:46:39.640Z,1006.3
2016-09-09T04:47:39.641Z,1006.33
2016-09-09T04:48:39.564Z,1006.31
2016-09-09T04:49:39.594Z,1006.37
2016-09-09T04:50:39.669Z,1006.36
2016-09-09T04:51:39.643Z,1006.37
2016-09-09T04:52:39.783Z,1006.37
2016-09-09T04:53:39.398Z,1006.39
2016-09-09T04:54:39.806Z,1006.39
2016-09-09T04:55:40.032Z,1006.44
2016-09-09T04:56:40.180Z,1006.38
2016-09-09T04:57:39.823Z,1006.38
2016-09-09T04:58:39.939Z,1006.42
2016-09-09T04:59:39.666Z,1006.38
2016-09-09T05:00:39.534Z,1006.42
2016-09-09T05:01:39.331Z,1006.47
2016-09-09T05:02:39.848Z,1006.45
2016-09-09T05:03:39.528Z,1006.46
2016-09-09T05:04:40.121Z,1006.5
2016-09-09T05:05:40.266Z,1006.48
2016-09-09T05:06:39.843Z,1006.48
2016-09-09T05:07:39.545Z,1006.5
2016-09-09T05:08:40.220Z,1006.49
2016-09-09T05:09:40.660Z,1006.48
2016-09-09T05:10:40.230Z,1006.5
2016-09-09T05:11:39.616Z,1006.46
2016-09-09T05:12:39.617Z,1006.47
2016-09-09T05:13:40.049Z,1006.53
2016-09-09T05:14:39.907Z,1006.49
2016-09-09T05:15:39.822Z,1006.5
2016-09-09T05:16:40.100Z,1006.55
2016-09-09T05:17:39.618Z,1006.57
2016-09-09T05:18:40.574Z,1006.56
2016-09-09T05:19:40.135Z,1006.63
2016-09-09T05:20:40.091Z,1006.6
2016-09-09T05:21:40.334Z,1006.64
2016-09-09T05:22:40.135Z,1006.67
2016-09-09T05:23:40.382Z,1006.64
2016-09-09T05:24:40.480Z,1006.63
2016-09-09T05:25:40.045Z,1006.63
2016-09-09T05:26:40.598Z,1006.64
2016-09-09T05:27:40.188Z,1006.67
2016-09-09T05:28:40.068Z,1006.65
2016-09-09T05:29:40.283Z,1006.67
2016-09-09T05:30:40.082Z,1006.69
2016-09-09T05:31:40.201Z,1006.7
2016-09-09T05:32:40.435Z,1006.71
2016-09-09T05:33:40.980Z,1006.68
2016-09-09T05:34:40.313Z,1006.67
2016-09-09T05:35:40.701Z,1006.69
2016-09-09T05:36:40.583Z,1006.72
2016-09-09T05:37:40.194Z,1006.73
2016-09-09T05:38:40.353Z,1006.73
2016-09-09T05:39:40.413Z,1006.71
2016-09-09T05:40:40.643Z,1006.73
2016-09-09T05:41:41.670Z,1006.74
2016-09-09T05:42:41.345Z,1006.69
2016-09-09T05:43:41.049Z,1006.75
2016-09-09T05:44:40.792Z,1006.75
2016-09-09T05:45:40.723Z,1006.77
2016-09-09T05:46:40.554Z,1006.76
2016-09-09T05:47:40.458Z,1006.75
2016-09-09T05:48:40.429Z,1006.79
2016-09-09T05:49:40.462Z,1006.79
2016-09-09T05:50:41.023Z,1006.81
2016-09-09T05:51:40.894Z,1006.81
2016-09-09T05:52:42.027Z,1006.82
2016-09-09T05:53:41.604Z,1006.79
2016-09-09T05:54:40.917Z,1006.78
2016-09-09T05:55:41.160Z,1006.8
2016-09-09T05:56:41.578Z,1006.78
2016-09-09T05:57:41.171Z,1006.83
2016-09-09T05:58:41.133Z,1006.81
2016-09-09T05:59:41.119Z,1006.86
2016-09-09T06:00:41.275Z,1006.83
2016-09-09T06:01:41.668Z,1006.82
2016-09-09T06:02:41.027Z,1006.88
2016-09-09T06:03:41.116Z,1006.89
2016-09-09T06:04:41.070Z,1006.87
2016-09-09T06:05:40.890Z,1006.86
2016-09-09T06:06:41.253Z,1006.83
2016-09-09T06:07:41.141Z,1006.89
2016-09-09T06:08:41.064Z,1006.89
2016-09-09T06:09:41.135Z,1006.92
2016-09-09T06:10:41.158Z,1006.89
2016-09-09T06:11:41.615Z,1006.92
2016-09-09T06:12:41.241Z,1006.89
2016-09-09T06:13:41.599Z,1006.87
2016-09-09T06:14:41.597Z,1006.93
2016-09-09T06:15:41.338Z,1006.95
2016-09-09T06:16:41.169Z,1006.97
2016-09-09T06:17:41.160Z,1006.99
2016-09-09T06:18:41.085Z,1006.98
2016-09-09T06:19:41.581Z,1007.03
2016-09-09T06:20:41.319Z,1007.01
2016-09-09T06:21:41.127Z,1007.02
2016-09-09T06:22:41.636Z,1007
2016-09-09T06:23:41.507Z,1007.05
2016-09-09T06:24:41.839Z,1007.02
2016-09-09T06:25:41.590Z,1007.01
2016-09-09T06:26:41.386Z,1007.05
2016-09-09T06:27:41.763Z,1007.08
2016-09-09T06:28:41.459Z,1007.06
2016-09-09T06:29:42.258Z,1007.11
2016-09-09T06:30:41.778Z,1007.11
2016-09-09T06:31:42.269Z,1007.06
2016-09-09T06:32:41.559Z,1007.1
2016-09-09T06:33:41.608Z,1007.07
2016-09-09T06:34:41.563Z,1007.11
2016-09-09T06:35:41.751Z,1007.11
2016-09-09T06:36:41.779Z,1007.14
2016-09-09T06:37:41.965Z,1007.17
2016-09-09T06:38:41.663Z,1007.18
2016-09-09T06:39:42.277Z,1007.15
2016-09-09T06:40:42.288Z,1007.18
2016-09-09T06:41:42.821Z,1007.19
2016-09-09T06:42:42.335Z,1007.2
2016-09-09T06:43:42.403Z,1007.22
2016-09-09T06:44:42.270Z,1007.27
2016-09-09T06:45:42.851Z,1007.27
2016-09-09T06:46:42.398Z,1007.27
2016-09-09T06:47:41.878Z,1007.33
2016-09-09T06:48:42.113Z,1007.38
2016-09-09T06:49:41.856Z,1007.4
2016-09-09T06:50:42.014Z,1007.37
2016-09-09T06:51:42.735Z,1007.37
2016-09-09T06:52:42.414Z,1007.39
2016-09-09T06:53:42.164Z,1007.42
2016-09-09T06:54:42.687Z,1007.37
2016-09-09T06:55:42.338Z,1007.36
2016-09-09T06:56:42.141Z,1007.39
2016-09-09T06:57:43.108Z,1007.4
2016-09-09T06:58:42.729Z,1007.41
2016-09-09T06:59:42.507Z,1007.41
2016-09-09T07:00:42.365Z,1007.47
2016-09-09T07:01:42.273Z,1007.45
2016-09-09T07:02:42.669Z,1007.51
2016-09-09T07:03:43.089Z,1007.51
2016-09-09T07:04:42.419Z,1007.51
2016-09-09T07:05:42.733Z,1007.55
2016-09-09T07:06:43.150Z,1007.56
2016-09-09T07:07:42.727Z,1007.59
2016-09-09T07:08:43.311Z,1007.6
2016-09-09T07:09:42.584Z,1007.65
2016-09-09T07:10:42.582Z,1007.63
2016-09-09T07:11:42.611Z,1007.68
2016-09-09T07:12:42.524Z,1007.69
2016-09-09T07:13:42.731Z,1007.7
2016-09-09T07:14:42.930Z,1007.73
2016-09-09T07:15:43.265Z,1007.74
2016-09-09T07:16:42.971Z,1007.7
2016-09-09T07:17:42.848Z,1007.76
2016-09-09T07:18:43.302Z,1007.78
2016-09-09T07:19:42.651Z,1007.76
2016-09-09T07:20:42.934Z,1007.77
2016-09-09T07:21:42.757Z,1007.85
2016-09-09T07:22:43.265Z,1007.82
2016-09-09T07:23:42.801Z,1007.79
2016-09-09T07:24:43.402Z,1007.83
2016-09-09T07:25:43.785Z,1007.84
2016-09-09T07:26:43.058Z,1007.85
2016-09-09T07:27:42.896Z,1007.87
2016-09-09T07:28:43.420Z,1007.9
2016-09-09T07:29:43.145Z,1007.85
2016-09-09T07:30:43.245Z,1007.88
2016-09-09T07:31:43.450Z,1007.9
2016-09-09T07:32:43.724Z,1007.84
2016-09-09T07:33:43.149Z,1007.88
2016-09-09T07:34:42.950Z,1007.92
2016-09-09T07:35:42.917Z,1007.89
2016-09-09T07:36:43.256Z,1007.91
2016-09-09T07:37:43.640Z,1007.94
2016-09-09T07:38:43.629Z,1007.94
2016-09-09T07:39:43.434Z,1007.88
2016-09-09T07:40:43.277Z,1007.9
2016-09-09T07:41:43.650Z,1007.91
2016-09-09T07:42:43.825Z,1007.94
2016-09-09T07:43:43.622Z,1008
2016-09-09T07:44:43.701Z,1007.97
2016-09-09T07:45:43.506Z,1007.97
2016-09-09T07:46:44.328Z,1008.05
2016-09-09T07:47:43.354Z,1008
2016-09-09T07:48:43.387Z,1008.05
2016-09-09T07:49:43.713Z,1008.01
2016-09-09T07:50:43.830Z,1008.02
2016-09-09T07:51:43.396Z,1008.05
2016-09-09T07:52:43.608Z,1008.04
2016-09-09T07:53:43.546Z,1008.01
2016-09-09T07:54:43.634Z,1008.01
2016-09-09T07:55:43.504Z,1007.99
2016-09-09T07:56:45.445Z,1008.05
2016-09-09T07:57:44.005Z,1008.08
2016-09-09T07:58:43.790Z,1008.08
2016-09-09T07:59:43.645Z,1008.06
2016-09-09T08:00:44.047Z,1008.07
2016-09-09T08:01:43.570Z,1008.08
2016-09-09T08:02:43.761Z,1008.1
2016-09-09T08:03:44.525Z,1008.09
2016-09-09T08:04:43.917Z,1008.11
2016-09-09T08:05:44.113Z,1008.14
2016-09-09T08:06:44.158Z,1008.21
2016-09-09T08:07:44.607Z,1008.21
2016-09-09T08:08:44.011Z,1008.25
2016-09-09T08:09:44.415Z,1008.25
2016-09-09T08:10:43.991Z,1008.27
2016-09-09T08:11:43.853Z,1008.25
2016-09-09T08:12:44.492Z,1008.21
2016-09-09T08:13:44.547Z,1008.21
2016-09-09T08:14:44.099Z,1008.23
2016-09-09T08:15:44.091Z,1008.21
2016-09-09T08:16:44.356Z,1008.19
2016-09-09T08:17:44.478Z,1008.18
2016-09-09T08:18:44.197Z,1008.2
2016-09-09T08:19:44.367Z,1008.21
2016-09-09T08:20:44.473Z,1008.24
2016-09-09T08:21:44.316Z,1008.23
2016-09-09T08:22:44.538Z,1008.23
2016-09-09T08:23:44.791Z,1008.24
2016-09-09T08:24:44.255Z,1008.24
2016-09-09T08:25:44.529Z,1008.24
2016-09-09T08:26:44.631Z,1008.27
2016-09-09T08:27:44.510Z,1008.24
2016-09-09T08:28:44.380Z,1008.25
2016-09-09T08:29:44.511Z,1008.28
2016-09-09T08:30:44.647Z,1008.31
2016-09-09T08:31:44.826Z,1008.34
2016-09-09T08:32:44.796Z,1008.38
2016-09-09T08:33:44.414Z,1008.35
2016-09-09T08:34:44.918Z,1008.35
2016-09-09T08:35:44.582Z,1008.33
2016-09-09T08:36:44.776Z,1008.32
2016-09-09T08:37:44.778Z,1008.29
2016-09-09T08:38:44.939Z,1008.24
2016-09-09T08:39:45.590Z,1008.27
2016-09-09T08:40:44.495Z,1008.29
2016-09-09T08:41:45.041Z,1008.27
2016-09-09T08:42:45.120Z,1008.26
2016-09-09T08:43:45.116Z,1008.27
2016-09-09T08:44:44.862Z,1008.26
2016-09-09T08:45:45.142Z,1008.3
2016-09-09T08:46:45.293Z,1008.31
2016-09-09T08:47:44.945Z,1008.39
2016-09-09T08:48:44.988Z,1008.39
2016-09-09T08:49:45.095Z,1008.37
2016-09-09T08:50:45.107Z,1008.38
2016-09-09T08:51:44.917Z,1008.39
2016-09-09T08:52:45.327Z,1008.39
2016-09-09T08:53:45.104Z,1008.41
2016-09-09T08:54:45.579Z,1008.41
2016-09-09T08:55:45.231Z,1008.42
2016-09-09T08:56:45.074Z,1008.38
2016-09-09T08:57:45.401Z,1008.38
2016-09-09T08:58:45.409Z,1008.34
2016-09-09T08:59:45.123Z,1008.34
2016-09-09T09:00:46.108Z,1008.38
2016-09-09T09:01:45.949Z,1008.36
2016-09-09T09:02:45.336Z,1008.41
2016-09-09T09:03:45.438Z,1008.46
2016-09-09T09:04:45.258Z,1008.48
2016-09-09T09:05:45.191Z,1008.46
2016-09-09T09:06:45.677Z,1008.42
2016-09-09T09:07:46.417Z,1008.4
2016-09-09T09:08:45.628Z,1008.37
2016-09-09T09:09:45.867Z,1008.38
2016-09-09T09:10:45.679Z,1008.42
2016-09-09T09:11:46.307Z,1008.39
2016-09-09T09:12:45.781Z,1008.35
2016-09-09T09:13:45.925Z,1008.52
2016-09-09T09:14:46.808Z,1008.4
2016-09-09T09:15:45.924Z,1008.45
2016-09-09T09:16:46.973Z,1008.43
2016-09-09T09:17:46.216Z,1008.46
2016-09-09T09:18:46.837Z,1008.42
2016-09-09T09:19:46.079Z,1008.42
2016-09-09T09:20:46.152Z,1008.45
2016-09-09T09:21:46.218Z,1008.49
2016-09-09T09:22:46.303Z,1008.49
2016-09-09T09:23:45.865Z,1008.45
2016-09-09T09:24:46.160Z,1008.49
2016-09-09T09:25:46.809Z,1008.5
2016-09-09T09:26:46.086Z,1008.54
2016-09-09T09:27:46.385Z,1008.53
2016-09-09T09:28:45.999Z,1008.53
2016-09-09T09:29:46.197Z,1008.51
2016-09-09T09:30:46.014Z,1008.54
2016-09-09T09:31:46.917Z,1008.47
2016-09-09T09:32:46.231Z,1008.53
2016-09-09T09:33:46.481Z,1008.49
2016-09-09T09:34:46.570Z,1008.51
2016-09-09T09:35:46.201Z,1008.6
2016-09-09T09:36:46.575Z,1008.58
2016-09-09T09:37:46.154Z,1008.6
2016-09-09T09:38:46.796Z,1008.52
2016-09-09T09:39:46.183Z,1008.52
2016-09-09T09:40:46.750Z,1008.55
2016-09-09T09:41:46.197Z,1008.53
2016-09-09T09:42:46.731Z,1008.48
2016-09-09T09:43:46.995Z,1008.46
2016-09-09T09:44:46.650Z,1008.43
2016-09-09T09:45:46.659Z,1008.38
2016-09-09T09:46:47.245Z,1008.39
2016-09-09T09:47:47.078Z,1008.37
2016-09-09T09:48:46.608Z,1008.38
2016-09-09T09:49:46.925Z,1008.37
2016-09-09T09:50:46.916Z,1008.32
2016-09-09T09:51:46.716Z,1008.34
2016-09-09T09:52:46.714Z,1008.28
2016-09-09T09:53:47.234Z,1008.3
2016-09-09T09:54:46.634Z,1008.33
2016-09-09T09:55:47.234Z,1008.32
2016-09-09T09:56:47.094Z,1008.35
2016-09-09T09:57:47.046Z,1008.34
2016-09-09T09:58:47.212Z,1008.36
2016-09-09T09:59:46.818Z,1008.35
2016-09-09T10:00:46.948Z,1008.34
2016-09-09T10:01:46.908Z,1008.34
2016-09-09T10:02:46.835Z,1008.36
2016-09-09T10:03:46.931Z,1008.39
2016-09-09T10:04:47.299Z,1008.39
2016-09-09T10:05:46.941Z,1008.41
2016-09-09T10:06:47.142Z,1008.46
2016-09-09T10:07:47.066Z,1008.41
2016-09-09T10:08:47.485Z,1008.45
2016-09-09T10:09:47.996Z,1008.43
2016-09-09T10:10:47.317Z,1008.37
2016-09-09T10:11:47.894Z,1008.35
2016-09-09T10:12:47.442Z,1008.39
2016-09-09T10:13:47.328Z,1008.39
2016-09-09T10:14:47.512Z,1008.39
2016-09-09T10:15:47.444Z,1008.38
2016-09-09T10:16:47.423Z,1008.35
2016-09-09T10:17:48.104Z,1008.36
2016-09-09T10:18:47.848Z,1008.37
2016-09-09T10:19:47.468Z,1008.36
2016-09-09T10:20:48.203Z,1008.31
2016-09-09T10:21:47.764Z,1008.31
2016-09-09T10:22:48.309Z,1008.38
2016-09-09T10:23:47.959Z,1008.37
2016-09-09T10:24:47.921Z,1008.38
2016-09-09T10:25:48.157Z,1008.34
2016-09-09T10:26:47.866Z,1008.35
2016-09-09T10:27:47.581Z,1008.32
2016-09-09T10:28:47.830Z,1008.37
2016-09-09T10:29:48.460Z,1008.36
2016-09-09T10:30:47.849Z,1008.38
2016-09-09T10:31:47.913Z,1008.4
2016-09-09T10:32:47.666Z,1008.39
2016-09-09T10:33:48.219Z,1008.39
2016-09-09T10:34:48.184Z,1008.42
2016-09-09T10:35:47.991Z,1008.41
2016-09-09T10:36:48.768Z,1008.48
2016-09-09T10:37:48.196Z,1008.49
2016-09-09T10:38:48.381Z,1008.53
2016-09-09T10:39:48.597Z,1008.48
2016-09-09T10:40:48.512Z,1008.48
2016-09-09T10:41:48.160Z,1008.44
2016-09-09T10:42:48.245Z,1008.44
2016-09-09T10:43:48.038Z,1008.43
2016-09-09T10:44:48.066Z,1008.41
2016-09-09T10:45:48.313Z,1008.36
2016-09-09T10:46:48.483Z,1008.33
2016-09-09T10:47:48.254Z,1008.36
2016-09-09T10:48:48.014Z,1008.33
2016-09-09T10:49:48.664Z,1008.33
2016-09-09T10:50:48.287Z,1008.28
2016-09-09T10:51:48.346Z,1008.26
2016-09-09T10:52:48.169Z,1008.27
2016-09-09T10:53:48.548Z,1008.26
2016-09-09T10:54:48.617Z,1008.3
2016-09-09T10:55:48.479Z,1008.27
2016-09-09T10:56:48.591Z,1008.32
2016-09-09T10:57:48.585Z,1008.32
2016-09-09T10:58:49.211Z,1008.34
2016-09-09T10:59:48.727Z,1008.26
2016-09-09T11:00:48.586Z,1008.29
2016-09-09T11:01:48.578Z,1008.3
2016-09-09T11:02:48.718Z,1008.28
2016-09-09T11:03:48.860Z,1008.29
2016-09-09T11:04:48.810Z,1008.3
2016-09-09T11:05:48.508Z,1008.31
2016-09-09T11:06:48.998Z,1008.24
2016-09-09T11:07:48.873Z,1008.23
2016-09-09T11:08:48.976Z,1008.27
2016-09-09T11:09:49.153Z,1008.17
2016-09-09T11:10:48.948Z,1008.15
2016-09-09T11:11:49.264Z,1008.07
2016-09-09T11:12:48.845Z,1008.06
2016-09-09T11:13:49.126Z,1008.09
2016-09-09T11:14:49.425Z,1008.04
2016-09-09T11:15:49.174Z,1008.07
2016-09-09T11:16:48.964Z,1008.08
2016-09-09T11:17:48.895Z,1008.12
2016-09-09T11:18:49.563Z,1008.1
2016-09-09T11:19:50.161Z,1008.06
2016-09-09T11:20:49.708Z,1008.09
2016-09-09T11:21:49.755Z,1008.1
2016-09-09T11:22:49.503Z,1008.12
2016-09-09T11:23:49.669Z,1008.12
2016-09-09T11:24:49.392Z,1008.14
2016-09-09T11:25:49.702Z,1008.11
2016-09-09T11:26:49.548Z,1008.1
2016-09-09T11:27:49.454Z,1008.09
2016-09-09T11:28:49.665Z,1008.14
2016-09-09T11:29:49.786Z,1008.07
2016-09-09T11:30:49.970Z,1008.14
2016-09-09T11:31:49.814Z,1008.07
2016-09-09T11:32:49.609Z,1008.07
2016-09-09T11:33:50.028Z,1008.07
2016-09-09T11:34:49.725Z,1008.07
2016-09-09T11:35:50.559Z,1008.07
2016-09-09T11:36:49.670Z,1008.04
2016-09-09T11:37:50.208Z,1008.05
2016-09-09T11:38:49.788Z,1008.08
2016-09-09T11:39:49.741Z,1008.07
2016-09-09T11:40:50.440Z,1008.11
2016-09-09T11:41:49.582Z,1008.09
2016-09-09T11:42:49.726Z,1008.06
2016-09-09T11:43:50.472Z,1008.11
2016-09-09T11:44:50.060Z,1008.13
2016-09-09T11:45:49.849Z,1008.11
2016-09-09T11:46:49.919Z,1008.15
2016-09-09T11:47:49.957Z,1008.22
2016-09-09T11:48:50.182Z,1008.23
2016-09-09T11:49:50.027Z,1008.2
2016-09-09T11:50:50.529Z,1008.2
2016-09-09T11:51:50.125Z,1008.23
2016-09-09T11:52:50.115Z,1008.25
2016-09-09T11:53:50.597Z,1008.24
2016-09-09T11:54:50.677Z,1008.28
2016-09-09T11:55:51.310Z,1008.22
2016-09-09T11:56:50.218Z,1008.22
2016-09-09T11:57:50.673Z,1008.21
2016-09-09T11:58:50.438Z,1008.22
2016-09-09T11:59:50.356Z,1008.2
2016-09-09T12:00:50.720Z,1008.15
2016-09-09T12:01:50.904Z,1008.15
2016-09-09T12:02:50.458Z,1008.17
2016-09-09T12:03:50.495Z,1008.14
2016-09-09T12:04:50.881Z,1008.17
2016-09-09T12:05:50.681Z,1008.15
2016-09-09T12:06:50.661Z,1008.17
2016-09-09T12:07:50.607Z,1008.15
2016-09-09T12:08:51.024Z,1008.15